createdAt,value
2019-05-23T00:00:56.280Z,7.70
2019-05-23T00:03:46.306Z,7.70
2019-05-23T00:06:37.824Z,7.70
2019-05-23T00:09:25.748Z,7.60
2019-05-23T00:12:17.987Z,7.60
2019-05-23T00:15:32.529Z,7.60
2019-05-23T00:18:22.314Z,7.60
2019-05-23T00:21:10.438Z,7.50
2019-05-23T00:23:58.661Z,7.50
2019-05-23T00:26:47.145Z,7.40
2019-05-23T00:29:36.283Z,7.40
2019-05-23T00:32:31.751Z,7.40
2019-05-23T00:35:20.816Z,7.40
2019-05-23T00:38:09.230Z,7.30
2019-05-23T00:40:59.607Z,7.30
2019-05-23T00:43:47.726Z,7.30
2019-05-23T00:46:37.314Z,7.30
2019-05-23T00:49:26.603Z,7.30
2019-05-23T00:52:15.255Z,7.20
2019-05-23T00:55:04.779Z,7.20
2019-05-23T00:57:52.710Z,7.20
2019-05-23T01:00:40.672Z,7.10
2019-05-23T01:03:29.963Z,7.10
2019-05-23T01:06:19.566Z,7.10
2019-05-23T01:09:08.825Z,7.00
2019-05-23T01:11:56.718Z,7.00
2019-05-23T03:26:00.894Z,6.00
2019-05-23T03:28:49.539Z,6.10
2019-05-23T03:31:40.353Z,6.10
2019-05-23T03:34:30.370Z,6.00
2019-05-23T03:37:18.485Z,6.00
2019-05-23T03:40:08.370Z,6.10
2019-05-23T03:42:57.465Z,6.00
2019-05-23T03:45:46.678Z,6.00
2019-05-23T03:48:34.524Z,6.00
2019-05-23T03:51:23.656Z,6.00
2019-05-23T03:54:11.706Z,6.10
2019-05-23T03:57:01.170Z,6.20
2019-05-23T03:59:50.474Z,6.20
2019-05-23T04:02:40.078Z,6.30
2019-05-23T04:05:29.373Z,6.40
2019-05-23T04:08:17.346Z,6.50
2019-05-23T04:11:06.016Z,6.60
2019-05-23T04:13:54.534Z,6.70
2019-05-23T04:16:42.160Z,6.70
2019-05-23T04:19:30.044Z,6.70
2019-05-23T04:22:17.811Z,6.80
2019-05-23T04:25:09.722Z,6.90
2019-05-23T04:27:58.258Z,7.00
2019-05-23T04:30:46.349Z,7.10
2019-05-23T04:33:34.539Z,7.20
2019-05-23T04:36:22.206Z,7.30
2019-05-23T04:39:10.557Z,7.40
2019-05-23T04:41:58.514Z,7.60
2019-05-23T04:44:47.144Z,7.70
2019-05-23T04:47:36.177Z,7.80
2019-05-23T04:50:25.151Z,7.80
2019-05-23T04:53:13.302Z,7.90
2019-05-23T04:56:01.729Z,8.00
2019-05-23T04:58:49.941Z,8.10
2019-05-23T05:01:39.128Z,8.10
2019-05-23T05:04:27.589Z,8.20
2019-05-23T05:07:15.406Z,8.30
2019-05-23T05:10:03.590Z,8.50
2019-05-23T05:12:52.118Z,8.70
2019-05-23T05:15:40.333Z,9.30
2019-05-23T05:18:28.954Z,9.30
2019-05-23T05:21:16.721Z,10.00
2019-05-23T05:24:05.024Z,10.80
2019-05-23T05:26:52.683Z,11.50
2019-05-23T05:29:40.393Z,12.00
2019-05-23T05:32:43.402Z,12.60
2019-05-23T05:35:18.116Z,13.20
2019-05-23T05:38:06.336Z,13.60
2019-05-23T05:40:54.466Z,14.10
2019-05-23T05:43:42.573Z,14.50
2019-05-23T05:46:30.264Z,14.80
2019-05-23T05:49:18.159Z,14.90
2019-05-23T05:52:07.717Z,14.80
2019-05-23T05:54:55.412Z,14.70
2019-05-23T05:57:43.030Z,14.10
2019-05-23T06:00:32.862Z,13.80
2019-05-23T06:03:20.476Z,13.40
2019-05-23T06:06:15.649Z,13.10
2019-05-23T06:09:23.148Z,13.00
2019-05-23T06:12:11.538Z,12.90
2019-05-23T06:14:59.086Z,12.90
2019-05-23T06:17:47.832Z,12.90
2019-05-23T06:20:40.928Z,12.90
2019-05-23T06:23:29.725Z,13.00
2019-05-23T06:26:17.420Z,13.00
2019-05-23T06:29:05.531Z,13.10
2019-05-23T06:31:53.836Z,13.10
2019-05-23T06:34:42.115Z,13.30
2019-05-23T06:37:34.151Z,13.40
2019-05-23T06:40:21.576Z,13.60
2019-05-23T06:43:09.581Z,13.80
2019-05-23T06:45:57.342Z,13.90
2019-05-23T06:48:45.945Z,14.00
2019-05-23T06:51:34.355Z,14.00
2019-05-23T06:54:22.362Z,14.10
2019-05-23T06:57:10.255Z,14.30
2019-05-23T06:59:58.269Z,14.50
2019-05-23T07:02:47.741Z,14.60
2019-05-23T07:05:36.783Z,14.90
2019-05-23T07:08:27.794Z,15.20
2019-05-23T07:11:19.042Z,15.50
2019-05-23T07:14:07.264Z,15.60
2019-05-23T07:16:55.252Z,15.70
2019-05-23T07:19:43.117Z,15.80
2019-05-23T07:22:31.221Z,16.00
2019-05-23T07:25:18.879Z,16.10
2019-05-23T07:28:06.504Z,16.30
2019-05-23T07:30:55.123Z,16.40
2019-05-23T07:34:00.497Z,16.60
2019-05-23T07:36:33.205Z,16.90
2019-05-23T07:39:20.745Z,17.10
2019-05-23T07:42:09.313Z,17.10
2019-05-23T07:44:58.856Z,17.20
2019-05-23T07:47:46.960Z,17.30
2019-05-23T07:50:34.621Z,17.30
2019-05-23T07:53:27.456Z,17.20
2019-05-23T07:56:17.184Z,17.20
2019-05-23T07:59:05.310Z,17.30
2019-05-23T08:01:58.599Z,17.30
2019-05-23T08:04:46.716Z,17.40
2019-05-23T08:07:35.846Z,17.70
2019-05-23T08:10:33.197Z,17.80
2019-05-23T08:13:12.824Z,18.00
2019-05-23T08:16:01.307Z,18.20
2019-05-23T08:18:49.303Z,18.10
2019-05-23T08:21:37.047Z,18.10
2019-05-23T08:24:25.091Z,18.10
2019-05-23T08:27:13.232Z,18.10
2019-05-23T08:30:02.315Z,18.30
2019-05-23T08:32:51.216Z,18.40
2019-05-23T08:35:38.752Z,18.20
2019-05-23T08:38:26.683Z,18.00
2019-05-23T08:41:14.711Z,17.70
2019-05-23T08:44:03.283Z,17.70
2019-05-23T08:46:51.141Z,17.70
2019-05-23T08:49:39.012Z,17.70
2019-05-23T08:52:26.681Z,17.80
2019-05-23T08:55:17.574Z,17.80
2019-05-23T08:58:05.751Z,17.90
2019-05-23T09:00:54.839Z,18.00
2019-05-23T09:03:42.601Z,17.90
2019-05-23T09:06:30.722Z,17.90
2019-05-23T09:09:29.291Z,17.90
2019-05-23T09:12:09.139Z,17.80
2019-05-23T09:14:57.045Z,17.90
2019-05-23T09:17:52.984Z,18.00
2019-05-23T09:20:34.814Z,18.10
2019-05-23T09:23:22.809Z,18.10
2019-05-23T09:26:10.586Z,18.20
2019-05-23T09:28:59.036Z,18.30
2019-05-23T09:31:46.957Z,18.30
2019-05-23T09:34:35.389Z,18.40
2019-05-23T09:37:23.936Z,18.50
2019-05-23T09:40:12.220Z,18.60
2019-05-23T09:42:59.938Z,18.60
2019-05-23T09:45:47.765Z,18.70
2019-05-23T09:48:35.744Z,18.70
2019-05-23T09:51:23.402Z,18.70
2019-05-23T09:54:11.389Z,18.80
2019-05-23T09:56:59.501Z,18.90
2019-05-23T09:59:47.378Z,19.00
2019-05-23T10:02:35.160Z,19.10
2019-05-23T10:05:40.677Z,19.30
2019-05-23T10:08:12.664Z,19.40
2019-05-23T10:11:00.537Z,19.40
2019-05-23T10:13:48.162Z,19.40
2019-05-23T10:16:35.938Z,19.40
2019-05-23T10:19:23.739Z,19.30
2019-05-23T10:22:12.122Z,18.90
2019-05-23T10:25:00.051Z,18.60
2019-05-23T10:27:47.763Z,18.50
2019-05-23T10:30:35.693Z,18.70
2019-05-23T10:33:23.789Z,18.80
2019-05-23T10:36:11.613Z,18.90
2019-05-23T10:38:59.617Z,19.20
2019-05-23T10:41:47.730Z,19.20
2019-05-23T10:44:36.317Z,19.40
2019-05-23T10:47:24.087Z,19.40
2019-05-23T10:50:12.197Z,19.50
2019-05-23T10:52:59.854Z,19.70
2019-05-23T10:55:47.864Z,19.90
2019-05-23T10:58:35.852Z,20.10
2019-05-23T11:01:24.513Z,19.90
2019-05-23T11:04:12.356Z,19.90
2019-05-23T11:07:00.658Z,20.00
2019-05-23T11:09:48.389Z,20.00
2019-05-23T11:12:37.166Z,20.00
2019-05-23T11:15:25.223Z,20.00
2019-05-23T11:18:13.424Z,20.00
2019-05-23T11:21:01.323Z,20.10
2019-05-23T11:23:50.906Z,20.10
2019-05-23T11:26:39.050Z,20.30
2019-05-23T11:29:27.640Z,20.30
2019-05-23T11:32:19.938Z,20.40
2019-05-23T11:35:06.471Z,20.60
2019-05-23T11:37:54.369Z,20.80
2019-05-23T11:40:42.439Z,20.70
2019-05-23T11:43:30.364Z,21.40
2019-05-23T11:46:32.443Z,20.60
2019-05-23T11:49:20.718Z,20.60
2019-05-23T11:52:08.803Z,20.60
2019-05-23T11:54:56.951Z,20.80
2019-05-23T11:57:45.076Z,20.90
2019-05-23T12:00:51.349Z,20.90
2019-05-23T12:03:39.345Z,20.90
2019-05-23T12:06:29.096Z,20.90
2019-05-23T12:09:17.178Z,20.90
2019-05-23T12:12:05.752Z,20.80
2019-05-23T12:14:53.654Z,20.80
2019-05-23T12:17:41.826Z,20.80
2019-05-23T12:20:29.911Z,20.80
2019-05-23T12:23:18.025Z,20.70
2019-05-23T12:26:05.706Z,20.50
2019-05-23T12:28:53.719Z,20.40
2019-05-23T12:31:41.729Z,20.40
2019-05-23T12:34:29.995Z,20.60
2019-05-23T12:37:20.051Z,20.80
2019-05-23T12:40:09.808Z,21.10
2019-05-23T12:42:57.443Z,21.10
2019-05-23T12:45:45.278Z,21.20
2019-05-23T12:48:43.948Z,21.60
2019-05-23T12:51:42.683Z,21.80
2019-05-23T12:54:30.949Z,22.00
2019-05-23T12:57:19.209Z,21.90
2019-05-23T13:00:10.256Z,21.90
2019-05-23T13:02:57.982Z,21.70
2019-05-23T13:05:46.041Z,21.50
2019-05-23T13:08:34.032Z,21.70
2019-05-23T13:11:21.798Z,21.70
2019-05-23T13:14:09.753Z,21.90
2019-05-23T13:17:00.961Z,22.00
2019-05-23T13:19:48.289Z,22.00
2019-05-23T13:22:36.982Z,22.00
2019-05-23T13:25:26.060Z,21.80
2019-05-23T13:28:13.846Z,21.40
2019-05-23T13:31:02.240Z,21.20
2019-05-23T13:33:49.977Z,21.00
2019-05-23T13:36:37.621Z,21.00
2019-05-23T13:39:26.117Z,20.80
2019-05-23T13:42:13.734Z,20.90
2019-05-23T13:45:01.506Z,21.00
2019-05-23T13:47:49.286Z,21.20
2019-05-23T13:50:36.946Z,21.30
2019-05-23T13:53:24.793Z,21.30
2019-05-23T13:56:12.784Z,21.30
2019-05-23T13:59:00.815Z,21.40
2019-05-23T14:01:48.550Z,21.50
2019-05-23T14:04:36.790Z,21.50
2019-05-23T14:07:25.499Z,21.50
2019-05-23T14:13:00.888Z,21.40
2019-05-23T14:15:49.885Z,21.50
2019-05-23T14:18:37.618Z,21.60
2019-05-23T14:21:27.148Z,21.70
2019-05-23T14:24:15.134Z,21.70
2019-05-23T14:27:22.898Z,21.70
2019-05-23T14:30:30.920Z,21.80
2019-05-23T14:33:20.867Z,21.80
2019-05-23T14:36:13.316Z,21.80
2019-05-23T14:39:02.884Z,21.70
2019-05-23T14:41:55.559Z,21.70
2019-05-23T14:44:43.854Z,21.70
2019-05-23T14:47:33.502Z,21.70
2019-05-23T14:50:28.793Z,21.60
2019-05-23T14:53:18.777Z,21.60
2019-05-23T14:56:08.101Z,21.60
2019-05-23T14:58:56.041Z,21.50
2019-05-23T15:01:43.869Z,21.50
2019-05-23T15:04:35.125Z,21.40
2019-05-23T15:07:23.372Z,21.50
2019-05-23T15:10:12.760Z,21.40
2019-05-23T15:13:00.533Z,21.40
2019-05-23T15:15:48.391Z,21.40
2019-05-23T15:18:36.070Z,21.40
2019-05-23T15:21:24.129Z,21.40
2019-05-23T15:24:11.972Z,21.30
2019-05-23T15:26:59.719Z,21.20
2019-05-23T15:29:47.315Z,21.10
2019-05-23T15:32:35.469Z,21.10
2019-05-23T15:35:24.181Z,21.10
2019-05-23T15:38:12.183Z,21.00
2019-05-23T15:40:59.820Z,21.00
2019-05-23T15:43:48.064Z,21.00
2019-05-23T15:46:36.767Z,21.10
2019-05-23T15:49:25.172Z,20.90
2019-05-23T15:52:18.421Z,20.90
2019-05-23T15:55:11.853Z,21.00
2019-05-23T15:58:21.949Z,20.70
2019-05-23T16:01:09.201Z,20.70
2019-05-23T16:04:05.473Z,20.80
2019-05-23T16:06:55.256Z,20.80
2019-05-23T16:09:43.496Z,20.80
2019-05-23T16:12:31.672Z,20.80
2019-05-23T16:15:20.088Z,20.70
2019-05-23T16:18:07.865Z,20.70
2019-05-23T16:20:55.868Z,20.80
2019-05-23T16:23:43.530Z,20.70
2019-05-23T16:26:31.400Z,20.80
2019-05-23T16:29:20.929Z,20.80
2019-05-23T16:32:10.246Z,20.80
2019-05-23T16:34:58.062Z,20.70
2019-05-23T16:37:46.096Z,20.60
2019-05-23T16:40:34.497Z,20.50
2019-05-23T16:43:22.337Z,20.50
2019-05-23T16:46:09.931Z,20.50
2019-05-23T16:48:58.004Z,20.40
2019-05-23T16:51:46.191Z,20.40
2019-05-23T16:54:35.740Z,20.40
2019-05-23T16:57:41.711Z,20.30
2019-05-23T17:00:49.830Z,20.30
2019-05-23T17:03:42.702Z,20.30
2019-05-23T17:06:34.797Z,20.30
2019-05-23T17:09:39.581Z,20.30
2019-05-23T17:12:35.668Z,20.30
2019-05-23T17:15:27.913Z,20.30
2019-05-23T17:18:26.973Z,20.30
2019-05-23T17:21:19.361Z,20.30
2019-05-23T17:24:15.028Z,20.20
2019-05-23T17:27:07.683Z,20.20
2019-05-23T17:29:59.666Z,20.10
2019-05-23T17:32:57.544Z,20.10
2019-05-23T17:35:45.149Z,20.10
2019-05-23T17:38:33.209Z,20.00
2019-05-23T17:41:21.509Z,20.00
2019-05-23T17:44:09.315Z,19.90
2019-05-23T17:46:57.244Z,19.90
2019-05-23T17:49:45.185Z,19.90
2019-05-23T17:52:33.188Z,19.90
2019-05-23T17:55:21.748Z,19.90
2019-05-23T17:58:09.580Z,19.90
2019-05-23T18:00:58.149Z,19.90
2019-05-23T18:03:45.820Z,19.90
2019-05-23T18:06:33.802Z,19.80
2019-05-23T18:09:21.824Z,19.60
2019-05-23T18:12:10.473Z,19.60
2019-05-23T18:14:58.488Z,19.50
2019-05-23T18:17:47.047Z,19.40
2019-05-23T18:20:37.065Z,19.30
2019-05-23T18:23:25.092Z,19.20
2019-05-23T18:26:13.592Z,19.10
2019-05-23T18:29:01.744Z,18.90
2019-05-23T18:31:52.016Z,18.90
2019-05-23T18:34:40.269Z,18.80
2019-05-23T18:37:28.261Z,18.70
2019-05-23T18:40:16.526Z,18.50
2019-05-23T18:43:06.629Z,18.50
2019-05-23T18:45:56.132Z,18.40
2019-05-23T18:48:44.154Z,18.30
2019-05-23T18:51:33.247Z,18.20
2019-05-23T18:54:21.033Z,18.10
2019-05-23T18:57:08.778Z,18.10
2019-05-23T18:59:56.559Z,17.90
2019-05-23T19:02:44.542Z,17.90
2019-05-23T19:05:32.404Z,17.80
2019-05-23T19:08:20.575Z,17.70
2019-05-23T19:11:20.016Z,17.50
2019-05-23T19:13:58.707Z,17.50
2019-05-23T19:16:47.115Z,17.30
2019-05-23T19:19:35.735Z,17.00
2019-05-23T19:22:24.073Z,16.90
2019-05-23T19:25:13.516Z,16.70
2019-05-23T19:28:01.584Z,16.50
2019-05-23T19:30:49.240Z,16.20
2019-05-23T19:33:37.672Z,16.10
2019-05-23T19:36:25.337Z,15.90
2019-05-23T19:39:13.145Z,15.50
2019-05-23T19:42:00.929Z,15.50
2019-05-23T19:44:48.798Z,15.30
2019-05-23T19:47:36.691Z,15.20
2019-05-23T19:50:25.169Z,15.10
2019-05-23T19:53:12.920Z,15.10
2019-05-23T19:56:01.503Z,14.90
2019-05-23T19:58:49.412Z,14.70
2019-05-23T20:01:38.972Z,14.70
2019-05-23T20:04:31.176Z,14.60
2019-05-23T20:07:17.721Z,14.50
2019-05-23T20:10:06.203Z,14.40
2019-05-23T20:12:54.204Z,14.30
2019-05-23T20:15:45.648Z,14.20
2019-05-23T20:18:31.912Z,14.10
2019-05-23T20:21:20.229Z,14.00
2019-05-23T20:24:08.133Z,13.90
2019-05-23T20:26:56.041Z,13.80
2019-05-23T20:29:44.197Z,13.70
2019-05-23T20:32:32.100Z,13.60
2019-05-23T20:35:20.412Z,13.60
2019-05-23T20:38:08.394Z,13.40
2019-05-23T20:40:56.417Z,13.40
2019-05-23T20:43:44.137Z,13.30
2019-05-23T20:46:31.953Z,13.20
2019-05-23T20:49:19.728Z,13.10
2019-05-23T20:52:07.696Z,13.10
2019-05-23T20:54:55.810Z,13.00
2019-05-23T20:57:43.461Z,12.90
2019-05-23T21:00:33.081Z,12.90
2019-05-23T21:03:22.721Z,12.80
2019-05-23T21:06:10.468Z,12.80
2019-05-23T21:08:58.014Z,12.60
2019-05-23T21:11:45.913Z,12.60
2019-05-23T21:14:33.650Z,12.60
2019-05-23T21:17:21.703Z,12.50
2019-05-23T21:20:09.334Z,12.40
2019-05-23T21:22:56.990Z,12.30
2019-05-23T21:25:46.593Z,12.20
2019-05-23T21:28:35.302Z,12.20
2019-05-23T21:31:23.214Z,12.10
2019-05-23T21:34:11.137Z,12.10
2019-05-23T21:36:58.924Z,12.00
2019-05-23T21:39:46.940Z,12.00
2019-05-23T21:42:47.327Z,11.90
2019-05-23T21:45:24.589Z,11.80
2019-05-23T21:48:12.642Z,11.80
2019-05-23T21:51:00.506Z,11.70
2019-05-23T21:53:48.481Z,11.60
2019-05-23T21:56:36.090Z,11.60
2019-05-23T21:59:23.824Z,11.50
2019-05-23T22:02:13.649Z,11.50
2019-05-23T22:05:03.066Z,11.40
2019-05-23T22:07:51.492Z,11.40
2019-05-23T22:10:39.603Z,11.30
2019-05-23T22:13:27.793Z,11.30
2019-05-23T22:16:16.149Z,11.20
2019-05-23T22:19:06.185Z,11.10
2019-05-23T22:21:54.179Z,11.10
2019-05-23T22:24:42.191Z,11.10
2019-05-23T22:27:30.142Z,11.00
2019-05-23T22:30:18.548Z,11.00
2019-05-23T22:33:06.669Z,10.90
2019-05-23T22:35:54.955Z,10.90
2019-05-23T22:38:42.629Z,10.80
2019-05-23T22:41:30.866Z,10.70
2019-05-23T22:44:19.181Z,10.70
2019-05-23T22:47:06.944Z,10.70
2019-05-23T22:49:54.879Z,10.60
2019-05-23T22:52:42.778Z,10.60
2019-05-23T22:55:30.882Z,10.60
2019-05-23T22:58:18.729Z,10.50
2019-05-23T23:01:06.344Z,10.50
2019-05-23T23:03:54.261Z,10.40
2019-05-23T23:06:41.862Z,10.40
2019-05-23T23:09:29.433Z,10.40
2019-05-23T23:12:19.090Z,10.30
2019-05-23T23:15:07.805Z,10.30
2019-05-23T23:17:55.360Z,10.20
2019-05-23T23:20:45.825Z,10.20
2019-05-23T23:23:32.994Z,10.10
2019-05-23T23:26:20.913Z,10.10
2019-05-23T23:29:09.361Z,10.00
2019-05-23T23:31:57.181Z,10.00
2019-05-23T23:34:45.184Z,10.00
2019-05-23T23:37:32.896Z,10.00
2019-05-23T23:40:21.095Z,9.90
2019-05-23T23:43:08.716Z,9.90
2019-05-23T23:46:14.922Z,9.90
2019-05-23T23:49:20.889Z,9.80
2019-05-23T23:52:26.765Z,9.80
2019-05-23T23:55:32.535Z,9.80
2019-05-23T23:58:20.064Z,9.70
